Airfield :
LOGIN :

Register | Disclaimer

   EN    FR    IT 

 










Legend :    VFR   Marginal VFR   IFR   Intensive IFR   Very Intensive IFR
Visi :
Ceiling :
>= 8 km
>= 3000ft
5 to 8 km
1000 to 3000 ft
1500m to 5 km
500 to 1000 ft
800 to 1500m
200 to 500 ft
< 800m
< 200 ft
Symbols :   Thunderstorms  Fog  Heavy snow  Heavy precipitations  Wind > 20 kt
SIGMETs :     Misc.  Thunderstorms  Icing  Turbulence  Mountain Waves  Volcanic Ashes






- Airport Elevation : 348 ft
- IATA code : STN


EGSS - London Stansted

CURRENT METAR :
  • 191050Z AUTO 24013KT 9999 BKN013 OVC024 11/09 Q1005

EXPIRED METARs :
  • 191020Z AUTO 24014KT 9999 -RA BKN015 11/09 Q1005
  • 190950Z AUTO 24014KT 9999 -RA BKN015 11/09 Q1004
  • 190920Z AUTO 24016KT 9999 OVC015 11/09 Q1004
  • 190850Z AUTO 24015KT 9999 -RA BKN015 OVC019 11/09 Q1004

TAF AMD TAF EGSS
Valid from the 19 at 07:00 until the 20 at 12:00 UTC


190740Z 1907/2012 24015KT 9999 BKN010
TEMPO 1907/1914 24020G32KT 8000 -RADZ
PROB30
TEMPO 1907/1909 4000 RADZ BR BKN004
BECMG 1908/1911 SCT025
PROB40
TEMPO 1911/1914 BKN014
BECMG 1914/1917 21020G30KT BKN008
TEMPO 1914/2012 6000 RA
PROB30
TEMPO 1921/2012 4000 +RADZ BKN004
ATIS : +44 1279 669 325



MET'MAP, your aeronautical weather chart ! - Copyright ORBIFLY December 2007 - Disclaimer

ORBIFLY MET'MAP TEAM :

Programming & Development : Alexandra Zaïnal
Concept & original design : Baudouin d'Aumeries
Assistance for programming : Marc-Olivier Méhu
Technical & hardware support : Manuel Goepfert

Contact : metmap@orbifly.com




SOURCES & CREDITS :

   NOAA